Time;durP1;ratioP1;P1;durP2;ratioP2;P2;SDS_P1;SDS_P2;PMS_P1;PMS_P2;Temp;Humidity;BMP_temperature;BMP_pressure;BME280_temperature;BME280_humidity;BME280_pressure;Samples;Min_cycle;Max_cycle;Signal;HPM_P1;HPM_P2
2021/12/29 00:00:57;;;;;;;;;6.00;2.67;;;;;12.83;64.88;100490.38;5081964;27;46630;-75
2021/12/29 00:03:22;;;;;;;;;11.00;2.00;;;;;12.91;65.28;100495.66;5099981;27;52289;-75
2021/12/29 00:05:48;;;;;;;;;7.00;2.67;;;;;12.90;64.95;100502.75;5099807;27;55482;-75
2021/12/29 00:08:13;;;;;;;;;8.67;3.00;;;;;12.90;64.99;100502.75;5099939;27;52532;-77
2021/12/29 00:10:38;;;;;;;;;5.00;3.33;;;;;12.90;64.80;100508.03;5099998;27;57141;-76
2021/12/29 00:13:05;;;;;;;;;5.33;3.00;;;;;12.93;64.99;100513.31;5092965;27;45482;-75
2021/12/29 00:15:31;;;;;;;;;10.67;3.00;;;;;12.93;64.93;100515.06;5080184;28;45545;-75
2021/12/29 00:17:59;;;;;;;;;6.33;3.67;;;;;12.92;64.92;100508.91;5062152;28;45510;-75
2021/12/29 00:20:29;;;;;;;;;13.33;4.67;;;;;12.93;64.65;100531.84;5061242;28;45311;-75
2021/12/29 00:23:01;;;;;;;;;5.33;2.33;;;;;12.95;64.96;100543.34;5079826;28;45392;-75
2021/12/29 00:25:27;;;;;;;;;11.67;1.67;;;;;12.91;64.83;100540.72;5061643;28;45497;-76
2021/12/29 00:27:55;;;;;;;;;3.33;2.00;;;;;12.96;64.62;100553.06;5079710;27;45249;-75
2021/12/29 00:30:20;;;;;;;;;3.33;2.00;;;;;12.96;64.83;100568.97;5061470;27;46836;-76
2021/12/29 00:32:48;;;;;;;;;11.00;2.00;;;;;12.92;64.81;100561.03;5079049;27;55579;-76
2021/12/29 00:35:14;;;;;;;;;6.00;2.00;;;;;12.93;64.85;100558.34;5079657;28;45478;-75
2021/12/29 00:37:40;;;;;;;;;6.33;3.67;;;;;12.92;64.62;100567.19;5062058;28;45237;-76
2021/12/29 00:40:06;;;;;;;;;11.00;4.00;;;;;12.94;64.53;100573.38;5079472;28;46716;-76
2021/12/29 00:42:31;;;;;;;;;7.33;3.67;;;;;12.93;64.91;100576.91;5079111;28;45412;-75
2021/12/29 00:44:57;;;;;;;;;12.67;5.00;;;;;12.92;64.69;100580.44;5078835;27;56904;-76
2021/12/29 00:47:22;;;;;;;;;5.67;4.00;;;;;12.89;65.24;100575.19;5079728;27;45520;-75
2021/12/29 00:49:48;;;;;;;;;13.00;4.67;;;;;12.86;65.14;100572.53;5060524;28;55380;-76
2021/12/29 00:52:13;;;;;;;;;2.67;2.67;;;;;12.85;65.29;100569.00;5078246;28;45249;-75
2021/12/29 00:54:39;;;;;;;;;15.00;3.33;;;;;12.83;65.28;100569.88;5092705;27;45197;-75
2021/12/29 00:57:05;;;;;;;;;11.33;4.00;;;;;12.87;65.54;100578.69;5079381;27;45643;-75
2021/12/29 00:59:30;;;;;;;;;7.00;5.00;;;;;12.83;65.46;100578.69;5079137;28;46189;-75
2021/12/29 01:01:58;;;;;;;;;5.67;2.67;;;;;12.82;65.75;100574.28;5078813;28;45402;-75
2021/12/29 01:04:24;;;;;;;;;10.33;3.67;;;;;12.85;65.68;100574.28;5061528;28;45664;-75
2021/12/29 01:06:50;;;;;;;;;9.33;3.00;;;;;12.87;65.45;100576.94;5043648;28;45447;-76
2021/12/29 01:09:15;;;;;;;;;10.00;3.00;;;;;12.86;66.19;100577.81;5078909;28;47267;-76
2021/12/29 01:11:40;;;;;;;;;11.67;3.00;;;;;12.88;65.86;100584.00;5060968;28;45268;-75
2021/12/29 01:14:07;;;;;;;;;9.33;2.67;;;;;12.84;65.92;100582.25;5082018;27;45258;-76
2021/12/29 01:19:05;;;;;;;;;6.67;3.33;;;;;12.88;65.88;100596.34;5078593;28;45623;-76
2021/12/29 01:21:31;;;;;;;;;8.67;3.33;;;;;12.87;66.24;100597.25;5060576;28;45332;-75
2021/12/29 01:23:57;;;;;;;;;11.67;4.00;;;;;12.81;65.98;100588.44;5078567;27;45237;-76
2021/12/29 01:26:22;;;;;;;;;7.67;4.00;;;;;12.88;66.11;100593.72;5079114;28;45280;-76
2021/12/29 01:28:48;;;;;;;;;5.00;3.67;;;;;12.87;66.20;100590.19;5078267;28;52905;-75
2021/12/29 01:31:13;;;;;;;;;14.33;5.00;;;;;12.87;66.54;100589.31;5078714;27;45570;-75
2021/12/29 01:33:39;;;;;;;;;13.33;4.33;;;;;12.88;66.41;100589.28;5078647;28;45255;-76
2021/12/29 01:36:04;;;;;;;;;9.33;5.00;;;;;12.88;66.27;100591.06;5078675;27;45647;-76
2021/12/29 01:38:31;;;;;;;;;6.33;4.67;;;;;12.89;66.59;100584.88;5077977;27;62365;-75
2021/12/29 01:40:57;;;;;;;;;14.33;3.00;;;;;12.90;66.28;100589.31;5078015;28;59711;-75
2021/12/29 01:43:22;;;;;;;;;12.67;4.33;;;;;12.91;66.38;100584.00;5078042;28;55716;-78
2021/12/29 01:45:48;;;;;;;;;12.67;4.00;;;;;12.90;66.22;100587.53;5078658;28;45391;-75
2021/12/29 01:48:15;;;;;;;;;12.00;4.67;;;;;12.92;66.73;100588.41;5078220;27;45264;-75
2021/12/29 01:50:41;;;;;;;;;9.00;3.67;;;;;12.88;66.26;100585.75;5078373;28;45229;-75
2021/12/29 01:53:12;;;;;;;;;11.67;4.00;;;;;12.88;66.42;100583.09;5080388;27;45536;-75
2021/12/29 01:55:38;;;;;;;;;6.67;4.67;;;;;12.91;66.96;100597.25;5071664;28;45515;-75
2021/12/29 01:58:04;;;;;;;;;4.33;3.00;;;;;12.92;66.86;100595.47;5043009;28;48661;-75
2021/12/29 02:00:30;;;;;;;;;6.00;4.00;;;;;12.92;66.96;100601.66;5078222;28;45325;-77
2021/12/29 02:02:56;;;;;;;;;15.33;4.33;;;;;12.89;66.55;100606.97;5076910;28;45186;-76
2021/12/29 02:05:21;;;;;;;;;12.00;4.00;;;;;12.90;67.08;100615.81;5078317;28;45200;-75
2021/12/29 02:07:47;;;;;;;;;7.33;5.00;;;;;12.89;66.94;100614.00;5077231;28;60374;-76
2021/12/29 02:10:13;;;;;;;;;13.00;5.00;;;;;12.84;66.76;100606.09;5077760;28;45236;-75
2021/12/29 02:12:39;;;;;;;;;11.00;4.00;;;;;12.91;67.09;100610.50;5080808;27;45441;-75
2021/12/29 02:15:05;;;;;;;;;12.00;2.00;;;;;12.88;67.20;100599.88;5060142;28;45509;-75
2021/12/29 02:17:31;;;;;;;;;12.00;4.00;;;;;12.95;66.95;100611.38;5059664;28;47740;-75
2021/12/29 02:20:01;;;;;;;;;9.00;5.00;;;;;12.94;66.87;100599.88;5077320;28;50654;-75
2021/12/29 02:22:42;;;;;;;;;7.67;4.00;;;;;12.98;66.94;100601.63;5060006;28;45264;-76
2021/12/29 02:27:46;;;;;;;;;6.67;3.00;;;;;13.02;66.89;100605.16;5086254;27;45778;-77
2021/12/29 02:30:12;;;;;;;;;5.00;4.00;;;;;12.99;67.06;100606.03;5098359;27;45532;-76
2021/12/29 02:32:37;;;;;;;;;5.67;3.00;;;;;13.00;67.10;100610.47;5098399;27;45346;-75
2021/12/29 02:35:03;;;;;;;;;11.67;4.00;;;;;13.05;67.16;100615.78;5080058;27;45525;-75
2021/12/29 02:37:29;;;;;;;;;3.33;2.00;;;;;13.05;67.02;100607.81;5097917;27;46905;-75
2021/12/29 02:39:54;;;;;;;;;10.67;4.00;;;;;13.06;67.42;100609.59;5097596;27;49499;-76
2021/12/29 02:42:24;;;;;;;;;6.67;3.67;;;;;13.07;67.03;100611.34;5098189;27;45367;-76
2021/12/29 02:44:51;;;;;;;;;11.00;3.67;;;;;13.08;66.86;100603.38;5098105;27;45427;-76
2021/12/29 02:47:17;;;;;;;;;15.00;2.33;;;;;13.11;67.01;100607.81;5079882;27;46574;-76
2021/12/29 02:49:45;;;;;;;;;7.67;4.00;;;;;13.08;67.10;100591.88;5097254;27;58060;-76
2021/12/29 02:52:11;;;;;;;;;7.33;3.67;;;;;13.13;67.24;100597.19;5079812;27;45374;-75
2021/12/29 02:54:37;;;;;;;;;10.67;3.33;;;;;13.14;67.15;100599.81;5096381;27;45240;-76
2021/12/29 02:57:05;;;;;;;;;11.67;2.67;;;;;13.14;67.05;100601.59;5077171;28;47361;-76
2021/12/29 02:59:33;;;;;;;;;9.33;2.00;;;;;13.13;66.65;100605.13;5059740;28;45368;-76
2021/12/29 03:01:58;;;;;;;;;9.00;3.00;;;;;13.14;67.09;100604.25;5077194;27;45276;-75
2021/12/29 03:04:26;;;;;;;;;7.00;2.00;;;;;13.15;67.21;100603.34;5076912;28;48300;-76
2021/12/29 03:06:52;;;;;;;;;10.67;3.00;;;;;13.16;67.14;100606.03;5058271;28;61804;-76
2021/12/29 03:09:17;;;;;;;;;6.67;4.00;;;;;13.17;67.21;100609.53;5191861;22;56578;-76
2021/12/29 03:11:43;;;;;;;;;7.00;4.00;;;;;13.19;67.28;100607.75;5088818;27;45348;-75
2021/12/29 03:14:09;;;;;;;;;7.67;3.00;;;;;13.18;67.18;100601.59;5091088;27;45261;-75
2021/12/29 03:16:35;;;;;;;;;12.00;2.00;;;;;13.23;66.72;100609.56;5077119;28;45818;-76
2021/12/29 03:19:02;;;;;;;;;8.33;3.00;;;;;13.25;67.15;100607.78;5078834;27;45386;-76
2021/12/29 03:21:28;;;;;;;;;11.00;3.00;;;;;13.26;67.12;100604.22;5077184;28;45339;-75
2021/12/29 03:23:53;;;;;;;;;6.33;2.33;;;;;13.27;67.26;100606.91;5077197;28;45567;-75
2021/12/29 03:26:19;;;;;;;;;3.00;2.33;;;;;13.29;67.14;100604.22;5076996;28;46464;-75
2021/12/29 03:28:44;;;;;;;;;4.33;3.33;;;;;13.30;67.49;100603.34;5076421;27;56393;-75
2021/12/29 03:31:14;;;;;;;;;7.00;2.67;;;;;13.30;67.22;100611.28;5077160;28;45341;-75
2021/12/29 03:33:39;;;;;;;;;6.00;3.00;;;;;13.25;67.68;100605.13;5076850;28;45232;-75
2021/12/29 03:36:05;;;;;;;;;4.00;2.67;;;;;13.27;67.57;100616.63;5076945;28;45613;-77
2021/12/29 03:38:35;;;;;;;;;5.67;2.33;;;;;13.29;67.56;100609.53;5076770;28;45272;-77
2021/12/29 03:41:01;;;;;;;;;4.33;3.00;;;;;13.30;67.19;100605.97;5077077;28;45310;-76
2021/12/29 03:43:27;;;;;;;;;8.33;2.67;;;;;13.31;67.58;100610.41;5076919;28;45668;-76
2021/12/29 03:45:54;;;;;;;;;5.00;2.67;;;;;13.26;67.61;100597.19;5076645;28;48320;-76
2021/12/29 03:48:21;;;;;;;;;4.67;2.00;;;;;13.31;67.87;100603.31;5076644;28;45300;-77
2021/12/29 03:50:49;;;;;;;;;8.33;2.67;;;;;13.25;68.01;100581.25;5076771;28;45404;-76
2021/12/29 03:53:15;;;;;;;;;6.67;3.00;;;;;13.30;67.74;100585.66;5079960;27;45545;-75
2021/12/29 03:55:41;;;;;;;;;4.00;2.00;;;;;13.36;67.63;100595.34;5086467;27;47578;-75
2021/12/29 03:58:07;;;;;;;;;4.00;1.33;;;;;13.35;67.76;100580.34;5076359;27;45311;-76
2021/12/29 04:00:32;;;;;;;;;5.67;1.00;;;;;13.38;67.52;100588.28;5076603;28;45663;-76
2021/12/29 04:02:58;;;;;;;;;5.00;2.00;;;;;13.41;67.41;100590.03;5076850;28;45399;-77
2021/12/29 04:05:23;;;;;;;;;4.67;2.00;;;;;13.40;67.60;100581.19;5076362;28;47117;-76
2021/12/29 04:07:49;;;;;;;;;11.00;2.00;;;;;13.38;67.26;100582.97;5076335;28;45335;-75
2021/12/29 04:10:14;;;;;;;;;2.00;2.00;;;;;13.35;67.37;100578.56;5076598;28;45225;-76
2021/12/29 04:12:40;;;;;;;;;6.00;2.00;;;;;13.39;67.46;100582.09;5078836;27;45517;-75
2021/12/29 04:15:07;;;;;;;;;2.67;2.33;;;;;13.37;67.73;100586.53;5076505;28;47590;-76
2021/12/29 04:17:38;;;;;;;;;9.00;2.33;;;;;13.41;67.41;100597.97;5076307;28;45367;-75
2021/12/29 04:22:51;;;;;;;;;4.67;1.67;;;;;13.40;67.69;100585.63;5084540;27;45379;-75
2021/12/29 04:25:19;;;;;;;;;5.33;1.00;;;;;13.41;67.46;100587.38;5095865;27;64349;-76
2021/12/29 04:27:46;;;;;;;;;6.67;2.00;;;;;13.35;67.95;100583.88;5099796;27;45470;-75
2021/12/29 04:30:12;;;;;;;;;8.00;2.00;;;;;13.40;67.54;100596.22;5100064;27;45378;-75
2021/12/29 04:32:37;;;;;;;;;6.67;2.00;;;;;13.39;67.62;100583.88;5100129;27;45379;-75
2021/12/29 04:35:03;;;;;;;;;4.33;2.00;;;;;13.37;67.70;100591.84;5099913;27;46606;-77
2021/12/29 04:37:28;;;;;;;;;4.00;2.00;;;;;13.36;67.62;100593.56;5099926;27;45375;-75
2021/12/29 04:39:54;;;;;;;;;4.67;2.00;;;;;13.34;68.11;100587.41;5099104;27;57883;-76
2021/12/29 04:42:19;;;;;;;;;2.67;1.67;;;;;13.32;68.24;100589.19;5099884;27;52820;-75
2021/12/29 04:44:44;;;;;;;;;3.00;1.00;;;;;13.31;68.42;100582.09;5099265;27;62862;-75
2021/12/29 04:47:12;;;;;;;;;2.33;2.00;;;;;13.29;68.64;100588.31;5099621;27;50006;-75
2021/12/29 04:49:41;;;;;;;;;4.33;1.00;;;;;13.18;68.80;100575.06;5100003;27;45308;-75
2021/12/29 04:52:08;;;;;;;;;4.00;1.00;;;;;13.24;69.16;100577.72;5099773;27;45526;-77
2021/12/29 04:54:33;;;;;;;;;5.33;1.00;;;;;13.23;69.11;100575.97;5098345;27;47373;-75
2021/12/29 04:56:58;;;;;;;;;3.00;0.67;;;;;13.22;69.45;100570.69;5079313;28;45378;-75
2021/12/29 04:59:25;;;;;;;;;0.33;0.33;;;;;13.22;69.66;100565.38;5078872;28;53105;-76
2021/12/29 05:01:50;;;;;;;;;4.67;2.00;;;;;13.21;69.27;100571.50;5079676;28;45566;-76
2021/12/29 05:04:21;;;;;;;;;3.33;1.00;;;;;13.21;69.27;100566.22;5078825;28;48884;-75
2021/12/29 05:09:31;;;;;;;;;1.00;1.00;;;;;13.24;69.24;100563.59;5079022;28;45354;-76
2021/12/29 05:11:59;;;;;;;;;1.00;0.00;;;;;13.26;69.67;100554.75;5061610;27;45272;-76
2021/12/29 05:14:24;;;;;;;;;5.00;1.00;;;;;13.27;69.45;100556.53;5080767;27;47598;-76
2021/12/29 05:16:49;;;;;;;;;0.00;0.00;;;;;13.26;69.60;100548.53;5078954;28;45238;-75
2021/12/29 05:19:15;;;;;;;;;1.67;1.00;;;;;13.29;69.35;100548.53;5079343;28;57016;-75
2021/12/29 05:21:40;;;;;;;;;2.00;0.00;;;;;13.30;69.97;100552.94;5078576;28;53265;-76
2021/12/29 05:24:06;;;;;;;;;2.00;2.00;;;;;13.30;69.82;100547.66;5078018;28;60954;-76
2021/12/29 05:26:31;;;;;;;;;6.00;1.33;;;;;13.29;69.82;100543.25;5078685;28;45252;-76
2021/12/29 05:28:57;;;;;;;;;1.00;1.00;;;;;13.30;69.99;100543.22;5078371;27;50913;-77
2021/12/29 05:31:23;;;;;;;;;2.00;0.00;;;;;13.28;70.46;100541.47;5078395;28;55085;-77
2021/12/29 05:33:49;;;;;;;;;1.00;1.00;;;;;13.29;70.09;100538.81;5078414;28;46267;-76
2021/12/29 05:36:14;;;;;;;;;1.00;1.00;;;;;13.29;69.99;100537.94;5078083;28;55375;-76
2021/12/29 05:38:39;;;;;;;;;1.00;1.00;;;;;13.25;70.48;100529.09;5078464;28;45383;-77
2021/12/29 05:41:05;;;;;;;;;1.00;1.00;;;;;13.28;69.98;100522.94;5079015;28;45345;-75
2021/12/29 05:43:30;;;;;;;;;1.33;0.00;;;;;13.27;70.86;100527.34;5059566;28;59926;-75
2021/12/29 05:45:56;;;;;;;;;1.00;1.00;;;;;13.25;70.68;100531.75;5078592;28;45417;-75
2021/12/29 05:48:21;;;;;;;;;5.67;1.00;;;;;13.27;70.78;100526.47;5078694;28;45379;-76
2021/12/29 05:50:46;;;;;;;;;2.00;0.67;;;;;13.26;70.85;100529.97;5078627;28;45353;-77
2021/12/29 05:53:12;;;;;;;;;2.33;1.00;;;;;13.25;71.19;100525.56;5081079;27;47442;-75
2021/12/29 05:55:41;;;;;;;;;2.33;1.00;;;;;13.24;71.30;100516.75;5088608;27;45291;-76
2021/12/29 05:58:07;;;;;;;;;4.33;1.00;;;;;13.24;70.87;100524.69;5078018;28;45158;-75
2021/12/29 06:00:33;;;;;;;;;4.00;1.33;;;;;13.23;71.47;100520.28;5078343;28;45549;-76
2021/12/29 06:02:58;;;;;;;;;2.00;2.00;;;;;13.22;71.36;100523.84;5078027;28;46721;-75
2021/12/29 06:05:24;;;;;;;;;3.67;2.00;;;;;13.22;71.75;100522.97;5078280;28;47121;-75
2021/12/29 06:07:49;;;;;;;;;4.33;2.00;;;;;13.21;71.39;100510.53;5060018;28;45497;-76
2021/12/29 06:10:15;;;;;;;;;4.00;2.00;;;;;13.18;71.50;100503.50;5078301;28;45359;-75
2021/12/29 06:12:40;;;;;;;;;2.33;2.33;;;;;13.21;71.70;100515.84;5080598;27;46463;-76
2021/12/29 06:15:06;;;;;;;;;3.00;3.00;;;;;13.17;71.89;100501.72;5078088;28;45262;-75
2021/12/29 06:17:31;;;;;;;;;3.67;2.00;;;;;13.17;71.84;100503.50;5060007;28;45295;-75
2021/12/29 06:19:57;;;;;;;;;6.00;3.00;;;;;13.21;72.31;100510.53;5078154;28;45291;-75
2021/12/29 06:22:23;;;;;;;;;3.00;3.00;;;;;13.22;72.00;100520.31;5077242;28;61360;-76
2021/12/29 06:24:52;;;;;;;;;3.00;3.00;;;;;13.22;72.12;100513.22;5077819;28;45339;-75
2021/12/29 06:27:18;;;;;;;;;3.33;3.00;;;;;13.24;72.31;100518.53;5078082;28;45233;-76
2021/12/29 06:29:43;;;;;;;;;6.00;3.00;;;;;13.24;72.20;100511.44;5078110;28;45485;-76
2021/12/29 06:32:09;;;;;;;;;4.33;3.67;;;;;13.26;72.53;100516.72;5077206;28;58295;-75
2021/12/29 06:34:35;;;;;;;;;5.00;5.00;;;;;13.26;72.15;100520.28;5077050;28;59513;-75
2021/12/29 06:37:03;;;;;;;;;4.00;4.00;;;;;13.26;72.18;100520.28;5077845;28;45427;-75
2021/12/29 06:39:29;;;;;;;;;5.00;3.00;;;;;13.27;72.57;100524.69;5078149;28;45627;-76
2021/12/29 06:41:54;;;;;;;;;3.67;3.00;;;;;13.25;72.21;100509.66;5077407;28;46002;-77
2021/12/29 06:44:20;;;;;;;;;4.67;2.67;;;;;13.28;72.52;100515.84;5077018;28;59218;-75
2021/12/29 06:46:45;;;;;;;;;3.33;3.33;;;;;13.28;72.56;100515.84;5076952;28;53185;-75
2021/12/29 06:49:10;;;;;;;;;5.00;4.00;;;;;13.23;72.27;100507.03;5076919;28;45521;-76
2021/12/29 06:51:36;;;;;;;;;5.33;4.00;;;;;13.30;72.74;100521.13;5076827;28;55033;-76
2021/12/29 06:54:01;;;;;;;;;7.00;4.00;;;;;13.31;72.40;100525.53;5086655;27;59526;-76
2021/12/29 06:56:27;;;;;;;;;5.00;3.67;;;;;13.26;72.35;100512.34;5066111;27;45655;-75
2021/12/29 06:58:52;;;;;;;;;5.67;4.00;;;;;13.29;73.04;100519.38;5097635;27;52934;-75
2021/12/29 07:01:17;;;;;;;;;3.33;3.33;;;;;13.29;73.07;100514.94;5097485;27;47112;-75
2021/12/29 07:03:43;;;;;;;;;5.00;3.00;;;;;13.28;72.95;100515.84;5097772;27;46748;-76
2021/12/29 07:06:08;;;;;;;;;3.33;3.33;;;;;13.27;72.57;100519.41;5079475;27;45250;-75
2021/12/29 07:08:34;;;;;;;;;6.67;4.00;;;;;13.28;73.11;100525.56;5097230;27;51337;-75
2021/12/29 07:11:00;;;;;;;;;4.00;4.00;;;;;13.25;72.76;100515.84;5097572;27;47429;-76
2021/12/29 07:13:25;;;;;;;;;3.00;3.00;;;;;13.22;72.96;100505.28;5087232;27;45311;-75
2021/12/29 07:15:50;;;;;;;;;5.00;3.67;;;;;13.28;72.86;100513.19;5076762;28;50663;-77
2021/12/29 07:18:16;;;;;;;;;4.00;4.00;;;;;13.27;73.46;100519.41;5077035;28;48638;-75
2021/12/29 07:20:44;;;;;;;;;4.00;3.00;;;;;13.22;73.32;100509.69;5076848;28;46246;-75
2021/12/29 07:23:09;;;;;;;;;3.00;3.00;;;;;13.24;73.55;100513.22;5077064;28;45304;-75
2021/12/29 07:25:35;;;;;;;;;5.00;2.00;;;;;13.25;73.91;100520.28;5076904;28;45190;-75
2021/12/29 07:28:00;;;;;;;;;3.33;3.33;;;;;13.22;74.53;100517.66;5076947;28;52559;-75
2021/12/29 07:30:25;;;;;;;;;3.00;3.00;;;;;13.19;75.51;100518.50;5076190;28;59679;-76
2021/12/29 07:32:51;;;;;;;;;4.00;4.00;;;;;13.17;75.97;100509.69;5076889;28;45423;-75
2021/12/29 07:35:16;;;;;;;;;3.33;3.33;;;;;13.17;75.21;100506.16;5076885;28;45396;-76
2021/12/29 07:37:42;;;;;;;;;5.00;3.67;;;;;13.15;75.51;100511.44;5077281;28;45355;-75
2021/12/29 07:40:09;;;;;;;;;3.67;3.67;;;;;13.17;75.08;100514.13;5076485;28;48186;-76
2021/12/29 07:42:35;;;;;;;;;4.33;4.33;;;;;13.14;75.16;100516.75;5076749;28;45552;-75
2021/12/29 07:45:03;;;;;;;;;3.00;3.00;;;;;13.16;74.62;100512.34;5076776;28;45324;-75
2021/12/29 07:47:28;;;;;;;;;3.00;2.00;;;;;13.20;74.38;100524.69;5077132;28;45479;-76
2021/12/29 07:49:53;;;;;;;;;4.33;3.00;;;;;13.21;74.40;100531.75;5076550;28;46277;-75
2021/12/29 07:52:19;;;;;;;;;2.00;2.00;;;;;13.16;74.73;100523.84;5076201;28;60424;-76
2021/12/29 07:54:44;;;;;;;;;5.00;3.67;;;;;13.25;74.36;100537.06;5090302;27;45203;-76
2021/12/29 07:57:10;;;;;;;;;4.67;3.33;;;;;13.28;74.36;100544.13;5076577;28;47560;-76
2021/12/29 07:59:35;;;;;;;;;3.00;3.00;;;;;13.23;74.75;100519.41;5076181;28;61468;-76
2021/12/29 08:02:01;;;;;;;;;4.00;3.67;;;;;13.32;74.36;100532.63;5080120;28;45414;-76
2021/12/29 08:04:26;;;;;;;;;3.67;3.00;;;;;13.33;74.36;100534.41;5080133;28;45154;-76
2021/12/29 08:06:52;;;;;;;;;3.33;3.33;;;;;13.32;74.10;100532.63;5079763;28;52419;-77
2021/12/29 08:09:17;;;;;;;;;4.00;2.33;;;;;13.38;74.05;100550.28;5062828;28;47428;-75
2021/12/29 08:11:43;;;;;;;;;5.67;2.67;;;;;13.40;74.20;100548.50;5082164;28;45266;-76
2021/12/29 08:14:08;;;;;;;;;5.00;4.00;;;;;13.39;74.60;100544.09;5096843;27;46664;-75
2021/12/29 08:16:33;;;;;;;;;3.67;3.67;;;;;13.43;74.38;100545.84;5062256;28;45247;-76
2021/12/29 08:18:59;;;;;;;;;4.33;3.33;;;;;13.43;74.97;100556.44;5080055;28;45574;-76
2021/12/29 08:21:24;;;;;;;;;6.33;3.00;;;;;13.45;74.44;100552.00;5079756;27;45331;-76
2021/12/29 08:23:50;;;;;;;;;4.00;4.00;;;;;13.45;74.66;100552.88;5079900;28;45501;-76
2021/12/29 08:26:15;;;;;;;;;3.33;3.33;;;;;13.47;74.50;100561.69;5079572;28;51750;-75
2021/12/29 08:28:40;;;;;;;;;3.00;3.00;;;;;13.48;74.92;100560.84;5079049;28;59072;-75
2021/12/29 08:31:06;;;;;;;;;2.00;2.00;;;;;13.49;74.46;100570.56;5079781;28;45400;-75
2021/12/29 08:33:33;;;;;;;;;4.33;2.67;;;;;13.46;74.94;100565.25;5079534;27;45228;-76
2021/12/29 08:35:59;;;;;;;;;3.33;3.33;;;;;13.52;74.56;100566.97;5079996;28;45275;-76
2021/12/29 08:38:24;;;;;;;;;3.00;3.00;;;;;13.54;74.14;100557.28;5079359;28;45781;-76
2021/12/29 08:40:51;;;;;;;;;4.00;4.00;;;;;13.54;74.82;100568.75;5079165;28;55430;-75
2021/12/29 08:43:17;;;;;;;;;4.67;4.00;;;;;13.57;75.02;100578.44;5079499;28;45367;-76
2021/12/29 08:45:43;;;;;;;;;3.00;3.00;;;;;13.56;74.41;100559.00;5079661;28;45356;-75
2021/12/29 08:48:09;;;;;;;;;4.00;4.00;;;;;13.61;74.30;100558.97;5079305;28;46097;-77
2021/12/29 08:50:35;;;;;;;;;4.00;4.00;;;;;13.58;74.41;100554.59;5079224;28;45517;-76
2021/12/29 08:53:02;;;;;;;;;12.00;3.00;;;;;13.61;74.38;100554.56;5080684;27;45340;-77
2021/12/29 08:55:28;;;;;;;;;4.00;3.00;;;;;13.68;74.83;100566.00;5091267;27;45612;-77
2021/12/29 08:57:54;;;;;;;;;5.33;4.00;;;;;13.71;74.57;100565.13;5078822;28;46448;-75
2021/12/29 09:00:19;;;;;;;;;7.00;6.00;;;;;13.73;74.85;100563.34;5079046;27;55934;-76
2021/12/29 09:02:45;;;;;;;;;3.67;3.67;;;;;13.78;75.12;100559.75;5044401;28;45220;-75
2021/12/29 09:05:10;;;;;;;;;4.00;4.00;;;;;13.82;75.19;100560.63;5079446;28;45453;-75
2021/12/29 09:07:36;;;;;;;;;3.00;3.00;;;;;13.83;74.72;100565.91;5079206;28;45629;-76
2021/12/29 09:10:04;;;;;;;;;3.33;2.00;;;;;13.86;75.13;100562.38;5078745;28;45351;-77
2021/12/29 09:12:29;;;;;;;;;6.00;4.00;;;;;13.91;75.06;100559.69;5083059;27;45592;-75
2021/12/29 09:14:54;;;;;;;;;3.00;3.00;;;;;13.92;74.79;100543.75;5090059;27;45632;-75
2021/12/29 09:17:20;;;;;;;;;2.33;2.00;;;;;13.99;75.06;100552.53;5078377;27;59283;-77
2021/12/29 09:19:45;;;;;;;;;4.33;4.00;;;;;14.02;75.13;100544.56;5078371;28;45306;-77
2021/12/29 09:22:12;;;;;;;;;3.67;3.67;;;;;14.05;74.98;100548.06;5078861;28;45418;-75
2021/12/29 09:24:37;;;;;;;;;5.33;4.00;;;;;14.10;75.37;100545.38;5060808;28;45655;-76
2021/12/29 09:27:03;;;;;;;;;3.67;3.67;;;;;14.13;75.49;100550.66;5060700;28;46065;-75
2021/12/29 09:29:32;;;;;;;;;2.67;2.00;;;;;14.08;75.25;100545.38;5078794;28;45335;-75
2021/12/29 09:32:01;;;;;;;;;2.00;1.00;;;;;14.19;75.63;100553.28;5079082;28;45249;-76
2021/12/29 09:34:27;;;;;;;;;1.67;1.67;;;;;14.22;75.26;100553.25;5060619;28;45561;-75
2021/12/29 09:36:56;;;;;;;;;2.00;1.00;;;;;14.28;75.47;100557.63;5060567;28;45348;-76
2021/12/29 09:39:21;;;;;;;;;2.00;2.00;;;;;14.31;75.12;100546.97;5078702;28;45392;-76
2021/12/29 09:41:47;;;;;;;;;1.00;1.00;;;;;14.37;75.07;100538.94;5060321;28;45209;-76
2021/12/29 09:44:12;;;;;;;;;0.33;0.33;;;;;14.39;74.87;100539.81;5078280;27;54154;-75
2021/12/29 09:46:41;;;;;;;;;2.00;1.00;;;;;14.44;75.14;100534.47;5078106;27;45796;-75
2021/12/29 09:49:09;;;;;;;;;1.00;1.00;;;;;14.46;75.46;100536.19;5060168;28;45423;-77
2021/12/29 09:51:34;;;;;;;;;2.00;2.00;;;;;14.50;75.62;100535.31;5078516;27;45407;-76
2021/12/29 09:54:00;;;;;;;;;2.00;2.00;;;;;14.56;74.89;100537.03;5088161;27;45244;-76
2021/12/29 09:56:27;;;;;;;;;4.00;1.00;;;;;14.56;75.00;100529.94;5081802;27;45613;-75
2021/12/29 09:58:52;;;;;;;;;5.00;3.00;;;;;14.62;75.45;100537.84;5060206;28;45406;-75
2021/12/29 10:01:18;;;;;;;;;3.00;3.00;;;;;14.60;75.75;100515.72;5078247;28;45522;-77
2021/12/29 10:03:44;;;;;;;;;2.00;2.00;;;;;14.71;75.71;100538.66;5078348;28;45569;-75
2021/12/29 10:06:09;;;;;;;;;2.67;2.67;;;;;14.74;76.09;100538.59;5077738;28;53417;-75
2021/12/29 10:08:37;;;;;;;;;2.67;2.67;;;;;14.76;75.48;100531.53;5077761;28;45597;-75
2021/12/29 10:11:08;;;;;;;;;2.67;2.00;;;;;14.74;75.49;100528.84;5078074;28;45376;-75
2021/12/29 10:13:35;;;;;;;;;4.33;4.33;;;;;14.82;76.10;100536.75;5081076;27;45536;-77
2021/12/29 10:16:06;;;;;;;;;2.00;2.00;;;;;14.85;76.11;100528.75;5077856;28;45411;-77
2021/12/29 10:18:33;;;;;;;;;1.00;1.00;;;;;14.85;76.02;100542.91;5077906;28;45498;-75
2021/12/29 10:21:18;;;;;;;;;2.00;1.00;;;;;14.85;75.88;100556.19;5077765;27;45474;-75
2021/12/29 10:23:46;;;;;;;;;0.00;0.00;;;;;14.81;76.65;100543.84;5077931;28;45254;-77
2021/12/29 10:26:19;;;;;;;;;0.00;0.00;;;;;14.82;76.42;100553.59;5077864;28;46418;-76
2021/12/29 10:28:48;;;;;;;;;1.00;1.00;;;;;14.85;76.84;100563.28;5077743;28;45480;-76
2021/12/29 10:31:20;;;;;;;;;0.00;0.00;;;;;14.82;77.08;100556.25;5060084;28;45421;-76
2021/12/29 10:33:48;;;;;;;;;0.00;0.00;;;;;14.87;77.40;100559.75;5077589;28;45537;-76
2021/12/29 10:36:16;;;;;;;;;0.00;0.00;;;;;14.89;78.38;100551.75;5077784;28;46729;-76
2021/12/29 10:38:43;;;;;;;;;0.00;0.00;;;;;14.89;77.55;100560.59;5077552;27;45167;-76
2021/12/29 10:41:09;;;;;;;;;0.00;0.00;;;;;14.91;77.21;100558.81;5077746;28;45336;-76
2021/12/29 10:43:36;;;;;;;;;1.00;1.00;;;;;14.93;78.06;100554.34;5077555;28;45350;-76
2021/12/29 10:46:01;;;;;;;;;4.33;4.33;;;;;14.95;77.90;100564.97;5059632;28;46563;-77
2021/12/29 10:48:31;;;;;;;;;0.00;0.00;;;;;14.98;77.95;100564.06;5077440;28;45320;-76
2021/12/29 10:51:05;;;;;;;;;0.67;0.67;;;;;15.01;78.21;100556.91;5077658;28;45426;-75
2021/12/29 10:53:34;;;;;;;;;0.00;0.00;;;;;15.02;77.93;100553.38;5084810;27;45398;-75
2021/12/29 10:55:59;;;;;;;;;0.33;0.00;;;;;15.04;79.29;100551.56;5084678;27;47115;-75
2021/12/29 10:58:26;;;;;;;;;0.00;0.00;;;;;15.06;78.24;100565.72;5059200;28;45280;-76
2021/12/29 11:01:06;;;;;;;;;1.00;1.00;;;;;15.08;78.17;100568.38;5077412;28;45458;-76
2021/12/29 11:03:32;;;;;;;;;0.00;0.00;;;;;15.05;79.59;100557.75;5086172;27;45409;-75
2021/12/29 11:06:00;;;;;;;;;1.33;0.00;;;;;15.05;80.00;100576.38;5097863;27;46460;-76
2021/12/29 11:08:27;;;;;;;;;0.00;0.00;;;;;15.02;81.02;100572.00;5097534;27;45393;-75
2021/12/29 11:10:53;;;;;;;;;0.67;0.00;;;;;15.00;80.37;100570.22;5097689;27;45505;-75
2021/12/29 11:13:25;;;;;;;;;0.00;0.00;;;;;15.05;79.98;100579.91;5087776;27;45617;-75
2021/12/29 11:15:52;;;;;;;;;1.00;0.00;;;;;15.10;79.64;100577.19;5076862;28;46907;-76
2021/12/29 11:18:17;;;;;;;;;0.00;0.00;;;;;15.14;80.27;100568.28;5077370;28;45442;-75
2021/12/29 11:20:42;;;;;;;;;0.00;0.00;;;;;15.19;79.51;100575.31;5076440;28;56367;-76
2021/12/29 11:23:08;;;;;;;;;0.00;0.00;;;;;15.26;79.78;100588.53;5076591;28;54020;-76
2021/12/29 11:25:34;;;;;;;;;0.00;0.00;;;;;15.27;79.56;100580.53;5076738;27;46504;-76
2021/12/29 11:28:03;;;;;;;;;1.00;0.00;;;;;15.29;79.91;100572.56;5076932;28;45513;-77
2021/12/29 11:30:29;;;;;;;;;0.00;0.00;;;;;15.32;80.42;100581.34;5059278;28;45412;-76